Nearby METAR Reports

 

KSJC - San Jose, California, USA
Distance from station: NE 9mi, 14km
Updated: Mon, 17-Jan-2022 4:53pm MST
Mostly cloudy
Mostly cloudy
 Wind from NNW
Wind: NNW 3 mph , 6 km/h
Temperature: 63°F , 17°C
Dew Point: 43°F , 6°C
Humidity: 49%
Barometer: 30.01 inHg , 1016.3 hPa
Clouds: Mostly cloudy
Visibility: 8 miles , 13 km
Cloud details: Few Clouds 7500 ft
Partly cloudy 10000 ft
Mostly cloudy 16000 ft
2022/01/17 23:53 KSJC 172353Z 34003KT 8SM FEW075 SCT100 BKN160 17/06 A3001 RMK AO2 SLP162 T01720061 10178 20117 56018
KNUQ - Moffett Nas/Mtn, California, USA
Distance from station: N 9mi, 14km
Updated: Mon, 17-Jan-2022 5:35pm MST
Clear
Clear
 Wind from NNW
Wind: NNW 6 mph , 9 km/h
Temperature: 57°F , 14°C
Dew Point: 45°F , 7°C
Humidity: 63%
Barometer: 30.02 inHg , 1016.6 hPa
Clouds: Clear
Visibility: 9 miles , 14 km
2022/01/18 00:35 KNUQ 180035Z AUTO 33005KT 9SM CLR 14/07 A3002 RMK AO2
 
KPAO - Palo Alto, California, USA
Distance from station: NNW 14mi, 23km
Updated: Mon, 17-Jan-2022 4:47pm MST
Partly cloudy
Partly cloudy
 Wind from N
Wind: N 5 mph , 7 km/h
Temperature: 59°F , 15°C
Dew Point: 46°F , 8°C
Humidity: 63%
Barometer: 30.02 inHg , 1016.6 hPa
Clouds: Partly cloudy
Visibility: 10 miles , 16 km
Cloud details: Partly cloudy 8000 ft
2022/01/17 23:47 KPAO 172347Z 35004KT 10SM SCT080 15/08 A3002
KRHV - San Jose/Reid, California, USA
Distance from station: ENE 12mi, 19km
Updated: Mon, 17-Jan-2022 4:50pm MST
Mostly cloudy
Mostly cloudy
 Wind from calm
Wind: Calm
Temperature: 63°F , 17°C
Dew Point: 41°F , 5°C
Humidity: 45%
Barometer: 30.02 inHg , 1016.6 hPa
Clouds: Mostly cloudy
Visibility: 10 miles , 16 km
Cloud details: Partly cloudy 7000 ft
Mostly cloudy 10000 ft
2022/01/17 23:50 KRHV 172350Z 00000KT 10SM SCT070 BKN100 17/05 A3002
 
KOAK - Oakland, California, USA
Distance from station: NNW 31mi, 50km
Updated: Mon, 17-Jan-2022 4:53pm MST
Mostly cloudy
Mostly cloudy
 Wind from NW
Wind: NW 9 mph , 15 km/h
Temperature: 61°F , 16°C
Dew Point: 45°F , 7°C
Humidity: 55%
Barometer: 30.03 inHg , 1016.9 hPa
Clouds: Mostly cloudy
Visibility: 10 miles , 16 km
Cloud details: Partly cloudy 13000 ft
Mostly cloudy 18000 ft
2022/01/17 23:53 KOAK 172353Z 31008KT 10SM SCT130 BKN180 16/07 A3003 RMK AO2 SLP168 HZ ALQDS FM SFC-012 T01560072 10156 20111 56017 $
KSQL - San Carlos Airpo, California, USA
Distance from station: NW 21mi, 34km
Updated: Mon, 17-Jan-2022 4:47pm MST
Few Clouds
Few Clouds
 Wind from calm
Wind: Calm
Temperature: 59°F , 15°C
Dew Point: 48°F , 9°C
Humidity: 68%
Barometer: 30.04 inHg , 1017.3 hPa
Clouds: Few Clouds
Visibility: 10 miles , 16 km
Cloud details: Few Clouds 9000 ft
2022/01/17 23:47 KSQL 172347Z 00000KT 10SM FEW090 15/09 A3004
 
KSFO - San Francisco, California, USA
Distance from station: NW 30mi, 49km
Updated: Mon, 17-Jan-2022 4:56pm MST
Partly cloudy
Partly cloudy
 Wind from NNE
Wind: NNE 5 mph , 7 km/h
Temperature: 57°F , 14°C
Dew Point: 45°F , 7°C
Humidity: 63%
Barometer: 30.02 inHg , 1016.6 hPa
Clouds: Partly cloudy
Visibility: 10 miles , 16 km
Cloud details: Few Clouds 10000 ft
Partly cloudy 20000 ft
2022/01/17 23:56 KSFO 172356Z 02004KT 10SM FEW100 SCT200 14/07 A3002 RMK AO2 SLP167 T01440072 10144 20117 55014
KE16 - San Martin, California, USA
Distance from station: ESE 27mi, 43km
Updated: Mon, 17-Jan-2022 5:30pm MST
Overcast
Overcast
 Wind from calm
Wind: Calm
Temperature: 59°F , 15°C
Dew Point: 46°F , 8°C
Humidity: 63%
Barometer: 30.03 inHg , 1016.9 hPa
Clouds: Overcast
Visibility: 10 miles , 16 km
Cloud details: Overcast 9000 ft
2022/01/18 00:30 KE16 180030Z AUTO 00000KT 10SM OVC090 15/08 A3003 RMK AO2 PWINO PNO
 
KWVI - Watsonville, California, USA
Distance from station: SSE 27mi, 44km
Updated: Mon, 17-Jan-2022 4:53pm MST
Partly cloudy
Partly cloudy
 Wind from WSW
Wind: WSW 7 mph , 11 km/h
Temperature: 55°F , 13°C
Dew Point: 50°F , 10°C
Humidity: 82%
Barometer: 30.03 inHg , 1016.9 hPa
Clouds: Partly cloudy
Visibility: 10 miles , 16 km
Cloud details: Partly cloudy 9500 ft
2022/01/17 23:53 KWVI 172353Z AUTO 24006KT 10SM SCT095 13/10 A3003 RMK AO2 SLP170 60001 T01280100 10167 20117 56010
KHAF - Half Moon Bay, California, USA
Distance from station: WNW 31mi, 50km
Updated: Mon, 17-Jan-2022 5:35pm MST
Clear
Clear
 Wind from calm
Wind: Calm
Temperature: 57°F , 14°C
Dew Point: 48°F , 9°C
Humidity: 72%
Barometer: 30.03 inHg , 1016.9 hPa
Clouds: Clear
Visibility: 8 miles , 13 km
2022/01/18 00:35 KHAF 180035Z AUTO 00000KT 8SM CLR 14/09 A3003 RMK AO2
 
KHWD - Hayward, California, USA
Distance from station: N 28mi, 44km
Updated: Mon, 17-Jan-2022 4:54pm MST
Clear
Clear
 Wind from W
Wind: W 7 mph , 11 km/h
Temperature: 61°F , 16°C
Dew Point: 46°F , 8°C
Humidity: 59%
Barometer: 30.02 inHg , 1016.6 hPa
Clouds: Clear
Visibility: 9 miles , 14 km
2022/01/17 23:54 KHWD 172354Z 28006KT 9SM CLR 16/08 A3002 RMK AO2 SLP174 T01610078 10172 20122 56016
KLVK - Livermore, California, USA
Distance from station: NNE 31mi, 51km
Updated: Mon, 17-Jan-2022 4:53pm MST
Partly cloudy
Partly cloudy
 Wind from ENE
Wind: ENE 5 mph , 7 km/h
Temperature: 63°F , 17°C
Dew Point: 46°F , 8°C
Humidity: 56%
Barometer: 30.01 inHg , 1016.3 hPa
Clouds: Partly cloudy
Visibility: 10 miles , 16 km
Cloud details: Partly cloudy 7500 ft
2022/01/17 23:53 KLVK 172353Z 07004KT 10SM SCT075 17/08 A3001 RMK AO2 SLP162 T01670078 10178 20094 56017